createdAt,value
2022-10-09T00:00:48.152Z,535.06281
2022-10-09T00:15:50.413Z,383.84943
2022-10-09T00:30:52.744Z,319.87451
2022-10-09T00:45:55.212Z,236.51328
2022-10-09T01:00:57.601Z,122.1339
2022-10-09T01:16:00.018Z,40.7113
2022-10-09T01:31:02.815Z,5.8159
2022-10-09T01:46:05.333Z,0
2022-10-09T02:01:07.986Z,0
2022-10-09T02:16:10.500Z,0
2022-10-09T02:31:12.968Z,0
2022-10-09T02:46:15.348Z,0
2022-10-09T03:01:17.775Z,0
2022-10-09T03:16:20.155Z,0
2022-10-09T03:31:49.975Z,0
2022-10-09T03:46:54.168Z,0
2022-10-09T04:01:56.512Z,0
2022-10-09T04:16:58.745Z,0
2022-10-09T04:32:01.199Z,0
2022-10-09T04:47:03.457Z,0
2022-10-09T05:02:05.838Z,0
2022-10-09T05:17:14.045Z,0
2022-10-09T05:32:17.271Z,0
2022-10-09T05:47:19.498Z,0
2022-10-09T06:02:21.837Z,0
2022-10-09T06:17:24.200Z,0
2022-10-09T06:32:26.663Z,0
2022-10-09T06:47:28.897Z,0
2022-10-09T07:02:31.343Z,0
2022-10-09T07:17:33.763Z,0
2022-10-09T07:32:36.068Z,0
2022-10-09T07:47:38.389Z,0
2022-10-09T08:02:40.744Z,0
2022-10-09T08:17:43.187Z,0
2022-10-09T08:32:45.541Z,0
2022-10-09T08:47:47.876Z,0
2022-10-09T09:02:50.535Z,0
2022-10-09T09:17:53.057Z,0
2022-10-09T09:32:55.313Z,0
2022-10-09T09:47:57.642Z,0
2022-10-09T10:02:59.936Z,0
2022-10-09T10:18:02.369Z,0
2022-10-09T10:33:04.694Z,0
2022-10-09T10:48:06.989Z,0
2022-10-09T11:03:09.441Z,0
2022-10-09T11:18:11.807Z,0
2022-10-09T11:33:14.144Z,0
2022-10-09T11:48:16.410Z,0
2022-10-09T12:03:18.895Z,0
2022-10-09T12:18:21.208Z,0
2022-10-09T12:33:23.488Z,0
2022-10-09T12:48:25.880Z,0
2022-10-09T13:03:28.177Z,0
2022-10-09T13:18:30.439Z,0
2022-10-09T13:33:32.750Z,0
2022-10-09T13:48:35.097Z,5.8159
2022-10-09T14:03:37.422Z,36.83403
2022-10-09T14:18:40.015Z,118.25664
2022-10-09T14:33:42.326Z,193.86334
2022-10-09T14:48:44.590Z,406.14371
2022-10-09T15:03:46.871Z,837.48962
2022-10-09T15:18:49.188Z,1319.24011
2022-10-09T15:33:51.487Z,1514.07275
2022-10-09T15:48:53.901Z,8710.28027
2022-10-09T16:03:56.217Z,2378.70312
2022-10-09T16:18:58.542Z,6714.45703
2022-10-09T16:34:00.922Z,19715.90234
2022-10-09T16:49:03.217Z,6451.77197
2022-10-09T17:04:05.653Z,5884.72168
2022-10-09T17:19:08.168Z,5085.03564
2022-10-09T17:34:10.454Z,5294.40771
2022-10-09T17:49:12.757Z,5398.125
2022-10-09T18:04:15.090Z,5149.97998
2022-10-09T18:19:17.412Z,5162.58105
2022-10-09T18:34:19.690Z,5404.91016
2022-10-09T18:49:21.981Z,5633.66895
2022-10-09T19:04:24.439Z,5862.42773
2022-10-09T19:19:26.683Z,5422.35791
2022-10-09T19:34:28.990Z,5600.71191
2022-10-09T19:49:31.303Z,5105.39111
2022-10-09T20:04:33.583Z,4605.22363
2022-10-09T20:19:35.886Z,4641.08838
2022-10-09T20:34:38.224Z,4323.15234
2022-10-09T20:49:40.498Z,3470.15381
2022-10-09T21:04:42.801Z,3967.41333
2022-10-09T21:19:45.218Z,3700.85132
2022-10-09T21:34:47.588Z,2911.82739
2022-10-09T21:49:49.827Z,2485.32812
2022-10-09T22:04:52.136Z,2021.02539
2022-10-09T22:19:54.414Z,1715.69055
2022-10-09T22:34:56.727Z,1682.73389
2022-10-09T22:49:59.012Z,1613.91235
2022-10-09T23:05:01.357Z,1688.54968
2022-10-09T23:20:03.641Z,1505.34888
2022-10-09T23:35:06.107Z,678.52173
2022-10-09T23:50:08.672Z,579.65143
